sensor_id;sensor_type;location;lat;lon;timestamp;P1;durP1;ratioP1;P2;durP2;ratioP2
50781;SDS011;36749;37.428;-121.972;2022-12-07T00:03:36;2.67;;;1.02;;
50781;SDS011;36749;37.428;-121.972;2022-12-07T00:06:04;3.05;;;1.20;;
50781;SDS011;36749;37.428;-121.972;2022-12-07T00:08:32;2.28;;;1.05;;
50781;SDS011;36749;37.428;-121.972;2022-12-07T00:11:08;1.85;;;0.90;;
50781;SDS011;36749;37.428;-121.972;2022-12-07T00:13:39;2.65;;;0.90;;
50781;SDS011;36749;37.428;-121.972;2022-12-07T00:16:11;2.20;;;0.88;;
50781;SDS011;36749;37.428;-121.972;2022-12-07T00:18:41;2.95;;;1.00;;
50781;SDS011;36749;37.428;-121.972;2022-12-07T00:23:38;3.92;;;1.15;;
50781;SDS011;36749;37.428;-121.972;2022-12-07T00:26:09;1.23;;;1.08;;
50781;SDS011;36749;37.428;-121.972;2022-12-07T00:28:37;1.00;;;0.98;;
50781;SDS011;36749;37.428;-121.972;2022-12-07T00:31:05;1.83;;;1.20;;
50781;SDS011;36749;37.428;-121.972;2022-12-07T00:33:36;3.97;;;1.40;;
50781;SDS011;36749;37.428;-121.972;2022-12-07T00:36:05;1.40;;;1.27;;
50781;SDS011;36749;37.428;-121.972;2022-12-07T00:38:34;1.35;;;1.02;;
50781;SDS011;36749;37.428;-121.972;2022-12-07T00:41:02;1.60;;;1.10;;
50781;SDS011;36749;37.428;-121.972;2022-12-07T00:43:29;2.53;;;1.13;;
50781;SDS011;36749;37.428;-121.972;2022-12-07T00:45:56;6.30;;;1.33;;
50781;SDS011;36749;37.428;-121.972;2022-12-07T00:48:23;2.75;;;1.00;;
50781;SDS011;36749;37.428;-121.972;2022-12-07T00:50:49;1.30;;;1.00;;
50781;SDS011;36749;37.428;-121.972;2022-12-07T00:53:16;1.17;;;0.80;;
50781;SDS011;36749;37.428;-121.972;2022-12-07T00:55:43;1.33;;;1.10;;
50781;SDS011;36749;37.428;-121.972;2022-12-07T00:58:10;2.17;;;0.90;;
50781;SDS011;36749;37.428;-121.972;2022-12-07T01:00:37;2.13;;;1.30;;
50781;SDS011;36749;37.428;-121.972;2022-12-07T01:03:05;1.23;;;0.82;;
50781;SDS011;36749;37.428;-121.972;2022-12-07T01:05:32;1.10;;;0.98;;
50781;SDS011;36749;37.428;-121.972;2022-12-07T01:07:58;5.18;;;1.17;;
50781;SDS011;36749;37.428;-121.972;2022-12-07T01:10:25;1.17;;;0.95;;
50781;SDS011;36749;37.428;-121.972;2022-12-07T01:12:52;1.77;;;1.08;;
50781;SDS011;36749;37.428;-121.972;2022-12-07T01:15:18;4.45;;;1.13;;
50781;SDS011;36749;37.428;-121.972;2022-12-07T01:17:44;6.50;;;1.77;;
50781;SDS011;36749;37.428;-121.972;2022-12-07T01:20:11;6.95;;;1.30;;
50781;SDS011;36749;37.428;-121.972;2022-12-07T01:22:38;6.25;;;1.80;;
50781;SDS011;36749;37.428;-121.972;2022-12-07T01:25:06;5.80;;;1.50;;
50781;SDS011;36749;37.428;-121.972;2022-12-07T01:27:33;5.97;;;1.60;;
50781;SDS011;36749;37.428;-121.972;2022-12-07T01:30:00;2.85;;;1.48;;
50781;SDS011;36749;37.428;-121.972;2022-12-07T01:32:27;3.47;;;1.50;;
50781;SDS011;36749;37.428;-121.972;2022-12-07T01:34:53;4.97;;;1.58;;
50781;SDS011;36749;37.428;-121.972;2022-12-07T01:37:19;5.60;;;1.60;;
50781;SDS011;36749;37.428;-121.972;2022-12-07T01:39:48;3.85;;;1.75;;
50781;SDS011;36749;37.428;-121.972;2022-12-07T01:42:14;6.55;;;2.13;;
50781;SDS011;36749;37.428;-121.972;2022-12-07T01:47:46;12.52;;;3.22;;
50781;SDS011;36749;37.428;-121.972;2022-12-07T01:50:15;4.28;;;1.83;;
50781;SDS011;36749;37.428;-121.972;2022-12-07T01:52:42;6.72;;;2.40;;
50781;SDS011;36749;37.428;-121.972;2022-12-07T01:55:10;8.10;;;2.60;;
50781;SDS011;36749;37.428;-121.972;2022-12-07T01:57:42;4.13;;;2.28;;
50781;SDS011;36749;37.428;-121.972;2022-12-07T02:00:11;6.47;;;2.13;;
50781;SDS011;36749;37.428;-121.972;2022-12-07T02:02:39;4.63;;;1.92;;
50781;SDS011;36749;37.428;-121.972;2022-12-07T02:05:29;4.72;;;2.05;;
50781;SDS011;36749;37.428;-121.972;2022-12-07T02:07:56;5.53;;;2.08;;
50781;SDS011;36749;37.428;-121.972;2022-12-07T02:10:28;4.22;;;2.00;;
50781;SDS011;36749;37.428;-121.972;2022-12-07T02:12:56;5.75;;;3.05;;
50781;SDS011;36749;37.428;-121.972;2022-12-07T02:15:32;4.85;;;2.30;;
50781;SDS011;36749;37.428;-121.972;2022-12-07T02:18:07;3.80;;;2.20;;
50781;SDS011;36749;37.428;-121.972;2022-12-07T02:20:42;6.05;;;2.65;;
50781;SDS011;36749;37.428;-121.972;2022-12-07T02:29:04;7.50;;;2.58;;
50781;SDS011;36749;37.428;-121.972;2022-12-07T02:31:36;7.88;;;2.60;;
50781;SDS011;36749;37.428;-121.972;2022-12-07T02:34:06;4.80;;;2.33;;
50781;SDS011;36749;37.428;-121.972;2022-12-07T02:36:45;9.88;;;3.03;;
50781;SDS011;36749;37.428;-121.972;2022-12-07T02:39:20;4.82;;;2.78;;
50781;SDS011;36749;37.428;-121.972;2022-12-07T02:42:02;7.07;;;2.97;;
50781;SDS011;36749;37.428;-121.972;2022-12-07T02:44:33;8.00;;;3.17;;
50781;SDS011;36749;37.428;-121.972;2022-12-07T02:47:03;6.00;;;2.70;;
50781;SDS011;36749;37.428;-121.972;2022-12-07T02:49:32;7.57;;;3.22;;
50781;SDS011;36749;37.428;-121.972;2022-12-07T02:51:59;5.60;;;2.80;;
50781;SDS011;36749;37.428;-121.972;2022-12-07T02:54:26;5.45;;;3.20;;
50781;SDS011;36749;37.428;-121.972;2022-12-07T03:02:21;7.00;;;3.30;;
50781;SDS011;36749;37.428;-121.972;2022-12-07T03:08:23;13.15;;;4.00;;
50781;SDS011;36749;37.428;-121.972;2022-12-07T03:13:49;8.05;;;3.60;;
50781;SDS011;36749;37.428;-121.972;2022-12-07T03:16:26;14.57;;;4.45;;
50781;SDS011;36749;37.428;-121.972;2022-12-07T03:21:51;7.25;;;3.50;;
50781;SDS011;36749;37.428;-121.972;2022-12-07T03:24:24;9.50;;;4.07;;
50781;SDS011;36749;37.428;-121.972;2022-12-07T03:26:56;8.02;;;3.63;;
50781;SDS011;36749;37.428;-121.972;2022-12-07T03:29:31;7.78;;;3.67;;
50781;SDS011;36749;37.428;-121.972;2022-12-07T03:32:02;10.87;;;5.57;;
50781;SDS011;36749;37.428;-121.972;2022-12-07T03:34:58;7.68;;;4.57;;
50781;SDS011;36749;37.428;-121.972;2022-12-07T03:40:40;14.15;;;4.80;;
50781;SDS011;36749;37.428;-121.972;2022-12-07T03:43:18;8.10;;;3.88;;
50781;SDS011;36749;37.428;-121.972;2022-12-07T03:45:48;9.27;;;4.68;;
50781;SDS011;36749;37.428;-121.972;2022-12-07T03:51:13;13.40;;;6.57;;
50781;SDS011;36749;37.428;-121.972;2022-12-07T03:53:48;11.18;;;4.57;;
50781;SDS011;36749;37.428;-121.972;2022-12-07T03:56:39;23.13;;;9.07;;
50781;SDS011;36749;37.428;-121.972;2022-12-07T03:59:06;9.95;;;5.13;;
50781;SDS011;36749;37.428;-121.972;2022-12-07T04:01:33;11.00;;;4.88;;
50781;SDS011;36749;37.428;-121.972;2022-12-07T04:03:59;11.40;;;4.82;;
50781;SDS011;36749;37.428;-121.972;2022-12-07T04:06:25;12.05;;;4.75;;
50781;SDS011;36749;37.428;-121.972;2022-12-07T04:08:51;10.90;;;4.45;;
50781;SDS011;36749;37.428;-121.972;2022-12-07T04:11:17;9.43;;;3.65;;
50781;SDS011;36749;37.428;-121.972;2022-12-07T04:13:43;8.75;;;3.72;;
50781;SDS011;36749;37.428;-121.972;2022-12-07T04:16:28;7.00;;;3.65;;
50781;SDS011;36749;37.428;-121.972;2022-12-07T04:18:54;9.57;;;3.45;;
50781;SDS011;36749;37.428;-121.972;2022-12-07T04:21:20;9.25;;;3.70;;
50781;SDS011;36749;37.428;-121.972;2022-12-07T04:23:47;7.05;;;3.72;;
50781;SDS011;36749;37.428;-121.972;2022-12-07T04:26:13;8.00;;;3.50;;
50781;SDS011;36749;37.428;-121.972;2022-12-07T04:28:39;5.97;;;3.65;;
50781;SDS011;36749;37.428;-121.972;2022-12-07T04:31:05;7.65;;;3.17;;
50781;SDS011;36749;37.428;-121.972;2022-12-07T04:33:31;8.70;;;3.95;;
50781;SDS011;36749;37.428;-121.972;2022-12-07T04:35:58;10.82;;;4.25;;
50781;SDS011;36749;37.428;-121.972;2022-12-07T04:38:24;9.13;;;4.18;;
50781;SDS011;36749;37.428;-121.972;2022-12-07T04:40:50;11.85;;;5.20;;
50781;SDS011;36749;37.428;-121.972;2022-12-07T04:43:16;11.80;;;4.95;;
50781;SDS011;36749;37.428;-121.972;2022-12-07T04:45:47;9.82;;;4.43;;
50781;SDS011;36749;37.428;-121.972;2022-12-07T04:48:13;10.40;;;4.30;;
50781;SDS011;36749;37.428;-121.972;2022-12-07T04:50:40;7.95;;;4.45;;
50781;SDS011;36749;37.428;-121.972;2022-12-07T04:53:06;9.32;;;4.88;;
50781;SDS011;36749;37.428;-121.972;2022-12-07T04:55:32;6.95;;;3.70;;
50781;SDS011;36749;37.428;-121.972;2022-12-07T04:57:58;7.65;;;4.30;;
50781;SDS011;36749;37.428;-121.972;2022-12-07T05:00:25;12.23;;;3.97;;
50781;SDS011;36749;37.428;-121.972;2022-12-07T05:02:51;10.45;;;4.25;;
50781;SDS011;36749;37.428;-121.972;2022-12-07T05:05:17;11.93;;;4.40;;
50781;SDS011;36749;37.428;-121.972;2022-12-07T05:07:43;9.63;;;4.70;;
50781;SDS011;36749;37.428;-121.972;2022-12-07T05:10:09;13.18;;;5.25;;
50781;SDS011;36749;37.428;-121.972;2022-12-07T05:12:36;11.43;;;5.53;;
50781;SDS011;36749;37.428;-121.972;2022-12-07T05:15:02;9.43;;;4.53;;
50781;SDS011;36749;37.428;-121.972;2022-12-07T05:17:28;6.97;;;3.70;;
50781;SDS011;36749;37.428;-121.972;2022-12-07T05:19:54;11.30;;;4.25;;
50781;SDS011;36749;37.428;-121.972;2022-12-07T05:22:20;7.90;;;3.80;;
50781;SDS011;36749;37.428;-121.972;2022-12-07T05:24:47;6.65;;;4.28;;
50781;SDS011;36749;37.428;-121.972;2022-12-07T05:27:13;9.13;;;3.80;;
50781;SDS011;36749;37.428;-121.972;2022-12-07T05:29:39;6.50;;;4.13;;
50781;SDS011;36749;37.428;-121.972;2022-12-07T05:32:05;9.20;;;4.88;;
50781;SDS011;36749;37.428;-121.972;2022-12-07T05:34:31;10.35;;;4.18;;
50781;SDS011;36749;37.428;-121.972;2022-12-07T05:36:57;9.38;;;4.07;;
50781;SDS011;36749;37.428;-121.972;2022-12-07T05:39:23;11.15;;;4.40;;
50781;SDS011;36749;37.428;-121.972;2022-12-07T05:41:50;8.88;;;4.80;;
50781;SDS011;36749;37.428;-121.972;2022-12-07T05:44:34;7.80;;;4.07;;
50781;SDS011;36749;37.428;-121.972;2022-12-07T05:47:00;9.05;;;4.78;;
50781;SDS011;36749;37.428;-121.972;2022-12-07T05:49:26;10.85;;;5.05;;
50781;SDS011;36749;37.428;-121.972;2022-12-07T05:51:53;11.82;;;5.15;;
50781;SDS011;36749;37.428;-121.972;2022-12-07T05:54:19;14.00;;;5.25;;
50781;SDS011;36749;37.428;-121.972;2022-12-07T05:56:45;11.52;;;5.40;;
50781;SDS011;36749;37.428;-121.972;2022-12-07T05:59:11;7.78;;;4.95;;
50781;SDS011;36749;37.428;-121.972;2022-12-07T06:01:50;10.13;;;6.32;;
50781;SDS011;36749;37.428;-121.972;2022-12-07T06:04:17;11.90;;;5.32;;
50781;SDS011;36749;37.428;-121.972;2022-12-07T06:06:44;9.68;;;5.20;;
50781;SDS011;36749;37.428;-121.972;2022-12-07T06:09:10;8.88;;;5.25;;
50781;SDS011;36749;37.428;-121.972;2022-12-07T06:11:40;9.05;;;4.85;;
50781;SDS011;36749;37.428;-121.972;2022-12-07T06:14:25;11.98;;;6.05;;
50781;SDS011;36749;37.428;-121.972;2022-12-07T06:16:51;10.50;;;5.63;;
50781;SDS011;36749;37.428;-121.972;2022-12-07T06:19:17;9.85;;;5.32;;
50781;SDS011;36749;37.428;-121.972;2022-12-07T06:21:43;10.20;;;6.07;;
50781;SDS011;36749;37.428;-121.972;2022-12-07T06:24:13;10.63;;;5.32;;
50781;SDS011;36749;37.428;-121.972;2022-12-07T06:26:40;10.35;;;5.65;;
50781;SDS011;36749;37.428;-121.972;2022-12-07T06:29:06;9.27;;;4.65;;
50781;SDS011;36749;37.428;-121.972;2022-12-07T06:31:33;14.18;;;5.40;;
50781;SDS011;36749;37.428;-121.972;2022-12-07T06:33:59;10.77;;;5.65;;
50781;SDS011;36749;37.428;-121.972;2022-12-07T06:36:26;9.02;;;4.75;;
50781;SDS011;36749;37.428;-121.972;2022-12-07T06:38:53;12.05;;;6.40;;
50781;SDS011;36749;37.428;-121.972;2022-12-07T06:41:19;12.88;;;6.78;;
50781;SDS011;36749;37.428;-121.972;2022-12-07T06:43:45;10.80;;;6.55;;
50781;SDS011;36749;37.428;-121.972;2022-12-07T06:46:12;11.20;;;6.22;;
50781;SDS011;36749;37.428;-121.972;2022-12-07T06:48:40;15.63;;;6.78;;
50781;SDS011;36749;37.428;-121.972;2022-12-07T06:51:06;10.98;;;5.85;;
50781;SDS011;36749;37.428;-121.972;2022-12-07T06:53:32;12.45;;;6.18;;
50781;SDS011;36749;37.428;-121.972;2022-12-07T06:55:59;12.55;;;6.22;;
50781;SDS011;36749;37.428;-121.972;2022-12-07T06:58:25;12.43;;;6.43;;
50781;SDS011;36749;37.428;-121.972;2022-12-07T07:00:51;10.90;;;6.32;;
50781;SDS011;36749;37.428;-121.972;2022-12-07T07:03:17;13.20;;;5.93;;
50781;SDS011;36749;37.428;-121.972;2022-12-07T07:05:43;11.70;;;5.93;;
50781;SDS011;36749;37.428;-121.972;2022-12-07T07:08:10;9.57;;;5.25;;
50781;SDS011;36749;37.428;-121.972;2022-12-07T07:10:37;10.93;;;5.85;;
50781;SDS011;36749;37.428;-121.972;2022-12-07T07:13:03;11.02;;;6.15;;
50781;SDS011;36749;37.428;-121.972;2022-12-07T07:15:30;13.13;;;6.30;;
50781;SDS011;36749;37.428;-121.972;2022-12-07T07:17:56;11.45;;;5.45;;
50781;SDS011;36749;37.428;-121.972;2022-12-07T07:20:22;11.80;;;6.05;;
50781;SDS011;36749;37.428;-121.972;2022-12-07T07:22:49;11.35;;;5.47;;
50781;SDS011;36749;37.428;-121.972;2022-12-07T07:25:15;13.13;;;5.68;;
50781;SDS011;36749;37.428;-121.972;2022-12-07T07:27:42;10.27;;;5.25;;
50781;SDS011;36749;37.428;-121.972;2022-12-07T07:30:08;9.57;;;5.65;;
50781;SDS011;36749;37.428;-121.972;2022-12-07T07:32:34;9.93;;;5.60;;
50781;SDS011;36749;37.428;-121.972;2022-12-07T07:35:01;9.77;;;5.57;;
50781;SDS011;36749;37.428;-121.972;2022-12-07T07:37:27;8.73;;;5.43;;
50781;SDS011;36749;37.428;-121.972;2022-12-07T07:39:53;12.45;;;5.90;;
50781;SDS011;36749;37.428;-121.972;2022-12-07T07:42:19;9.02;;;5.68;;
50781;SDS011;36749;37.428;-121.972;2022-12-07T07:44:46;10.48;;;5.78;;
50781;SDS011;36749;37.428;-121.972;2022-12-07T07:47:12;10.85;;;5.03;;
50781;SDS011;36749;37.428;-121.972;2022-12-07T07:49:39;11.70;;;6.15;;
50781;SDS011;36749;37.428;-121.972;2022-12-07T07:52:05;10.23;;;6.18;;
50781;SDS011;36749;37.428;-121.972;2022-12-07T07:54:32;11.48;;;6.35;;
50781;SDS011;36749;37.428;-121.972;2022-12-07T07:56:58;10.70;;;6.00;;
50781;SDS011;36749;37.428;-121.972;2022-12-07T07:59:24;13.40;;;6.57;;
50781;SDS011;36749;37.428;-121.972;2022-12-07T08:01:50;13.00;;;6.25;;
50781;SDS011;36749;37.428;-121.972;2022-12-07T08:04:17;13.32;;;6.35;;
50781;SDS011;36749;37.428;-121.972;2022-12-07T08:06:43;11.95;;;5.45;;
50781;SDS011;36749;37.428;-121.972;2022-12-07T08:09:09;12.85;;;5.90;;
50781;SDS011;36749;37.428;-121.972;2022-12-07T08:11:36;13.70;;;6.88;;
50781;SDS011;36749;37.428;-121.972;2022-12-07T08:14:02;14.82;;;6.65;;
50781;SDS011;36749;37.428;-121.972;2022-12-07T08:16:29;8.63;;;5.60;;
50781;SDS011;36749;37.428;-121.972;2022-12-07T08:18:55;14.48;;;6.45;;
50781;SDS011;36749;37.428;-121.972;2022-12-07T08:21:21;14.70;;;6.63;;
50781;SDS011;36749;37.428;-121.972;2022-12-07T08:23:47;11.90;;;6.70;;
50781;SDS011;36749;37.428;-121.972;2022-12-07T08:26:15;10.65;;;6.40;;
50781;SDS011;36749;37.428;-121.972;2022-12-07T08:28:42;13.13;;;6.90;;
50781;SDS011;36749;37.428;-121.972;2022-12-07T08:31:10;13.70;;;6.78;;
50781;SDS011;36749;37.428;-121.972;2022-12-07T08:33:38;11.75;;;6.43;;
50781;SDS011;36749;37.428;-121.972;2022-12-07T08:36:06;14.38;;;7.82;;
50781;SDS011;36749;37.428;-121.972;2022-12-07T08:38:37;13.55;;;7.15;;
50781;SDS011;36749;37.428;-121.972;2022-12-07T08:41:04;14.15;;;6.57;;
50781;SDS011;36749;37.428;-121.972;2022-12-07T08:43:31;12.20;;;6.68;;
50781;SDS011;36749;37.428;-121.972;2022-12-07T08:48:40;10.07;;;6.00;;
50781;SDS011;36749;37.428;-121.972;2022-12-07T08:51:09;14.90;;;7.63;;
50781;SDS011;36749;37.428;-121.972;2022-12-07T08:53:35;13.73;;;7.00;;
50781;SDS011;36749;37.428;-121.972;2022-12-07T08:56:03;13.60;;;6.93;;
50781;SDS011;36749;37.428;-121.972;2022-12-07T08:58:29;14.25;;;7.03;;
50781;SDS011;36749;37.428;-121.972;2022-12-07T09:00:56;14.10;;;7.18;;
50781;SDS011;36749;37.428;-121.972;2022-12-07T09:03:22;12.65;;;7.03;;
50781;SDS011;36749;37.428;-121.972;2022-12-07T09:05:48;17.83;;;7.60;;
50781;SDS011;36749;37.428;-121.972;2022-12-07T09:08:14;13.10;;;7.18;;
50781;SDS011;36749;37.428;-121.972;2022-12-07T09:10:41;11.05;;;6.47;;
50781;SDS011;36749;37.428;-121.972;2022-12-07T09:13:07;14.02;;;6.70;;
50781;SDS011;36749;37.428;-121.972;2022-12-07T09:15:34;14.82;;;7.72;;
50781;SDS011;36749;37.428;-121.972;2022-12-07T09:18:00;12.73;;;6.57;;
50781;SDS011;36749;37.428;-121.972;2022-12-07T09:20:26;12.88;;;7.07;;
50781;SDS011;36749;37.428;-121.972;2022-12-07T09:22:52;12.05;;;6.47;;
50781;SDS011;36749;37.428;-121.972;2022-12-07T09:25:18;11.48;;;6.95;;
50781;SDS011;36749;37.428;-121.972;2022-12-07T09:27:44;11.45;;;6.22;;
50781;SDS011;36749;37.428;-121.972;2022-12-07T09:30:10;11.55;;;6.15;;
50781;SDS011;36749;37.428;-121.972;2022-12-07T09:32:37;13.48;;;6.85;;
50781;SDS011;36749;37.428;-121.972;2022-12-07T09:35:03;16.83;;;7.75;;
50781;SDS011;36749;37.428;-121.972;2022-12-07T09:37:29;11.85;;;6.70;;
50781;SDS011;36749;37.428;-121.972;2022-12-07T09:40:00;11.85;;;6.28;;
50781;SDS011;36749;37.428;-121.972;2022-12-07T09:42:28;12.70;;;7.07;;
50781;SDS011;36749;37.428;-121.972;2022-12-07T09:45:05;14.15;;;6.50;;
50781;SDS011;36749;37.428;-121.972;2022-12-07T09:47:35;12.80;;;6.75;;
50781;SDS011;36749;37.428;-121.972;2022-12-07T09:50:06;11.25;;;6.50;;
50781;SDS011;36749;37.428;-121.972;2022-12-07T09:52:37;12.52;;;6.82;;
50781;SDS011;36749;37.428;-121.972;2022-12-07T09:55:08;13.70;;;6.72;;
50781;SDS011;36749;37.428;-121.972;2022-12-07T09:57:39;12.18;;;6.05;;
50781;SDS011;36749;37.428;-121.972;2022-12-07T10:00:15;11.65;;;6.53;;
50781;SDS011;36749;37.428;-121.972;2022-12-07T10:05:24;13.38;;;6.40;;
50781;SDS011;36749;37.428;-121.972;2022-12-07T10:07:51;11.82;;;6.68;;
50781;SDS011;36749;37.428;-121.972;2022-12-07T10:10:20;14.30;;;7.10;;
50781;SDS011;36749;37.428;-121.972;2022-12-07T10:15:19;12.75;;;6.60;;
50781;SDS011;36749;37.428;-121.972;2022-12-07T10:17:50;13.02;;;7.32;;
50781;SDS011;36749;37.428;-121.972;2022-12-07T10:20:24;12.38;;;7.15;;
50781;SDS011;36749;37.428;-121.972;2022-12-07T10:25:28;13.35;;;7.43;;
50781;SDS011;36749;37.428;-121.972;2022-12-07T10:28:18;12.48;;;7.40;;
50781;SDS011;36749;37.428;-121.972;2022-12-07T10:30:48;14.18;;;7.38;;
50781;SDS011;36749;37.428;-121.972;2022-12-07T10:33:34;13.23;;;6.45;;
50781;SDS011;36749;37.428;-121.972;2022-12-07T10:36:20;11.30;;;6.25;;
50781;SDS011;36749;37.428;-121.972;2022-12-07T10:38:58;13.00;;;7.13;;
50781;SDS011;36749;37.428;-121.972;2022-12-07T10:41:26;13.05;;;6.93;;
50781;SDS011;36749;37.428;-121.972;2022-12-07T10:43:53;12.75;;;7.00;;
50781;SDS011;36749;37.428;-121.972;2022-12-07T10:54:41;10.48;;;5.90;;
50781;SDS011;36749;37.428;-121.972;2022-12-07T11:05:17;11.85;;;6.90;;
50781;SDS011;36749;37.428;-121.972;2022-12-07T11:16:24;22.90;;;12.68;;
50781;SDS011;36749;37.428;-121.972;2022-12-07T11:21:45;22.95;;;16.02;;
50781;SDS011;36749;37.428;-121.972;2022-12-07T11:24:19;23.33;;;15.07;;
50781;SDS011;36749;37.428;-121.972;2022-12-07T11:35:19;20.15;;;10.65;;
50781;SDS011;36749;37.428;-121.972;2022-12-07T11:37:48;17.60;;;10.25;;
50781;SDS011;36749;37.428;-121.972;2022-12-07T11:40:27;19.33;;;9.82;;
50781;SDS011;36749;37.428;-121.972;2022-12-07T11:43:01;13.85;;;8.40;;
50781;SDS011;36749;37.428;-121.972;2022-12-07T11:45:42;15.35;;;8.80;;
50781;SDS011;36749;37.428;-121.972;2022-12-07T11:48:17;16.13;;;9.25;;
50781;SDS011;36749;37.428;-121.972;2022-12-07T11:50:56;14.35;;;8.70;;
50781;SDS011;36749;37.428;-121.972;2022-12-07T11:56:09;15.48;;;8.90;;
50781;SDS011;36749;37.428;-121.972;2022-12-07T12:01:19;16.05;;;9.00;;
50781;SDS011;36749;37.428;-121.972;2022-12-07T12:03:53;17.38;;;9.23;;
50781;SDS011;36749;37.428;-121.972;2022-12-07T12:06:32;18.48;;;10.48;;
50781;SDS011;36749;37.428;-121.972;2022-12-07T12:09:11;14.77;;;8.77;;
50781;SDS011;36749;37.428;-121.972;2022-12-07T12:14:20;14.95;;;9.13;;
50781;SDS011;36749;37.428;-121.972;2022-12-07T12:22:32;17.08;;;10.35;;
50781;SDS011;36749;37.428;-121.972;2022-12-07T12:25:04;17.08;;;9.25;;
50781;SDS011;36749;37.428;-121.972;2022-12-07T12:27:33;17.95;;;9.13;;
50781;SDS011;36749;37.428;-121.972;2022-12-07T12:30:01;18.73;;;10.18;;
50781;SDS011;36749;37.428;-121.972;2022-12-07T12:32:38;15.10;;;9.35;;
50781;SDS011;36749;37.428;-121.972;2022-12-07T12:35:27;16.08;;;9.38;;
50781;SDS011;36749;37.428;-121.972;2022-12-07T12:40:54;16.75;;;9.32;;
50781;SDS011;36749;37.428;-121.972;2022-12-07T12:48:49;15.07;;;6.88;;
50781;SDS011;36749;37.428;-121.972;2022-12-07T12:54:21;12.13;;;7.15;;
50781;SDS011;36749;37.428;-121.972;2022-12-07T12:56:55;15.02;;;8.45;;
50781;SDS011;36749;37.428;-121.972;2022-12-07T13:02:20;13.13;;;8.25;;
50781;SDS011;36749;37.428;-121.972;2022-12-07T13:15:50;16.75;;;7.82;;
50781;SDS011;36749;37.428;-121.972;2022-12-07T13:18:38;16.15;;;7.93;;
50781;SDS011;36749;37.428;-121.972;2022-12-07T13:23:52;15.45;;;8.13;;
50781;SDS011;36749;37.428;-121.972;2022-12-07T13:31:41;16.70;;;8.27;;
50781;SDS011;36749;37.428;-121.972;2022-12-07T13:37:00;15.77;;;8.50;;
50781;SDS011;36749;37.428;-121.972;2022-12-07T13:40:27;15.20;;;8.43;;
50781;SDS011;36749;37.428;-121.972;2022-12-07T13:42:44;15.80;;;8.30;;
50781;SDS011;36749;37.428;-121.972;2022-12-07T13:45:43;16.30;;;8.98;;
50781;SDS011;36749;37.428;-121.972;2022-12-07T13:50:55;14.13;;;8.07;;
50781;SDS011;36749;37.428;-121.972;2022-12-07T13:53:22;15.18;;;8.15;;
50781;SDS011;36749;37.428;-121.972;2022-12-07T13:55:49;15.70;;;7.35;;
50781;SDS011;36749;37.428;-121.972;2022-12-07T13:58:16;16.05;;;7.97;;
50781;SDS011;36749;37.428;-121.972;2022-12-07T14:00:42;15.32;;;9.10;;
50781;SDS011;36749;37.428;-121.972;2022-12-07T14:05:38;14.65;;;7.65;;
50781;SDS011;36749;37.428;-121.972;2022-12-07T14:10:52;14.93;;;8.40;;
50781;SDS011;36749;37.428;-121.972;2022-12-07T14:16:54;14.98;;;7.28;;
50781;SDS011;36749;37.428;-121.972;2022-12-07T14:18:56;14.98;;;7.82;;
50781;SDS011;36749;37.428;-121.972;2022-12-07T14:21:25;15.70;;;8.35;;
50781;SDS011;36749;37.428;-121.972;2022-12-07T14:24:09;15.25;;;8.93;;
50781;SDS011;36749;37.428;-121.972;2022-12-07T14:27:02;14.55;;;7.72;;
50781;SDS011;36749;37.428;-121.972;2022-12-07T14:29:29;18.90;;;9.60;;
50781;SDS011;36749;37.428;-121.972;2022-12-07T14:31:58;16.75;;;8.98;;
50781;SDS011;36749;37.428;-121.972;2022-12-07T14:34:38;14.23;;;9.43;;
50781;SDS011;36749;37.428;-121.972;2022-12-07T14:37:07;19.67;;;9.55;;
50781;SDS011;36749;37.428;-121.972;2022-12-07T14:39:35;17.23;;;10.75;;
50781;SDS011;36749;37.428;-121.972;2022-12-07T14:42:01;17.20;;;9.90;;
50781;SDS011;36749;37.428;-121.972;2022-12-07T14:44:27;16.90;;;9.52;;
50781;SDS011;36749;37.428;-121.972;2022-12-07T14:46:54;15.95;;;10.02;;
50781;SDS011;36749;37.428;-121.972;2022-12-07T14:49:20;19.20;;;9.75;;
50781;SDS011;36749;37.428;-121.972;2022-12-07T14:51:46;17.38;;;9.48;;
50781;SDS011;36749;37.428;-121.972;2022-12-07T14:54:17;15.02;;;8.70;;
50781;SDS011;36749;37.428;-121.972;2022-12-07T14:56:44;18.05;;;10.05;;
50781;SDS011;36749;37.428;-121.972;2022-12-07T14:59:17;15.77;;;8.50;;
50781;SDS011;36749;37.428;-121.972;2022-12-07T15:01:44;14.52;;;8.98;;
50781;SDS011;36749;37.428;-121.972;2022-12-07T15:04:10;15.30;;;8.80;;
50781;SDS011;36749;37.428;-121.972;2022-12-07T15:06:36;16.15;;;8.77;;
50781;SDS011;36749;37.428;-121.972;2022-12-07T15:09:03;19.25;;;8.45;;
50781;SDS011;36749;37.428;-121.972;2022-12-07T15:11:29;17.45;;;8.48;;
50781;SDS011;36749;37.428;-121.972;2022-12-07T15:13:55;14.82;;;8.40;;
50781;SDS011;36749;37.428;-121.972;2022-12-07T15:16:34;12.25;;;7.00;;
50781;SDS011;36749;37.428;-121.972;2022-12-07T15:19:02;15.43;;;8.18;;
50781;SDS011;36749;37.428;-121.972;2022-12-07T15:21:28;14.80;;;7.50;;
50781;SDS011;36749;37.428;-121.972;2022-12-07T15:23:54;14.00;;;8.18;;
50781;SDS011;36749;37.428;-121.972;2022-12-07T15:26:20;12.95;;;7.03;;
50781;SDS011;36749;37.428;-121.972;2022-12-07T15:28:46;13.05;;;7.47;;
50781;SDS011;36749;37.428;-121.972;2022-12-07T15:31:13;13.38;;;6.88;;
50781;SDS011;36749;37.428;-121.972;2022-12-07T15:33:40;13.32;;;7.40;;
50781;SDS011;36749;37.428;-121.972;2022-12-07T15:36:07;14.05;;;7.82;;
50781;SDS011;36749;37.428;-121.972;2022-12-07T15:38:34;13.38;;;7.60;;
50781;SDS011;36749;37.428;-121.972;2022-12-07T15:41:01;16.08;;;7.72;;
50781;SDS011;36749;37.428;-121.972;2022-12-07T15:43:27;15.25;;;7.75;;
50781;SDS011;36749;37.428;-121.972;2022-12-07T15:46:11;13.75;;;7.90;;
50781;SDS011;36749;37.428;-121.972;2022-12-07T15:48:39;15.80;;;8.10;;
50781;SDS011;36749;37.428;-121.972;2022-12-07T15:51:06;12.73;;;7.72;;
50781;SDS011;36749;37.428;-121.972;2022-12-07T15:53:33;12.88;;;7.20;;
50781;SDS011;36749;37.428;-121.972;2022-12-07T15:56:00;10.98;;;7.28;;
50781;SDS011;36749;37.428;-121.972;2022-12-07T15:58:27;10.90;;;6.45;;
50781;SDS011;36749;37.428;-121.972;2022-12-07T16:00:53;12.85;;;7.28;;
50781;SDS011;36749;37.428;-121.972;2022-12-07T16:03:19;12.25;;;6.78;;
50781;SDS011;36749;37.428;-121.972;2022-12-07T16:05:51;11.50;;;5.95;;
50781;SDS011;36749;37.428;-121.972;2022-12-07T16:08:18;11.98;;;6.40;;
50781;SDS011;36749;37.428;-121.972;2022-12-07T16:10:45;9.90;;;5.32;;
50781;SDS011;36749;37.428;-121.972;2022-12-07T16:13:11;11.43;;;5.60;;
50781;SDS011;36749;37.428;-121.972;2022-12-07T16:15:41;11.30;;;5.55;;
50781;SDS011;36749;37.428;-121.972;2022-12-07T16:18:08;12.48;;;5.93;;
50781;SDS011;36749;37.428;-121.972;2022-12-07T16:20:34;12.15;;;5.32;;
50781;SDS011;36749;37.428;-121.972;2022-12-07T16:23:01;7.63;;;4.78;;
50781;SDS011;36749;37.428;-121.972;2022-12-07T16:25:27;9.80;;;5.43;;
50781;SDS011;36749;37.428;-121.972;2022-12-07T16:27:53;11.52;;;6.35;;
50781;SDS011;36749;37.428;-121.972;2022-12-07T16:30:20;12.10;;;7.25;;
50781;SDS011;36749;37.428;-121.972;2022-12-07T16:32:46;13.60;;;7.63;;
50781;SDS011;36749;37.428;-121.972;2022-12-07T16:35:12;16.98;;;7.90;;